sensor_id;sensor_type;location;lat;lon;timestamp;pressure;altitude;pressure_sealevel;temperature;humidity
75401;BME280;63974;47.538;18.972;2023-02-19T00:00:51;100527.66;;;8.55;68.53
75401;BME280;63974;47.538;18.972;2023-02-19T00:03:56;100526.38;;;8.59;68.30
75401;BME280;63974;47.538;18.972;2023-02-19T00:07:00;100527.34;;;8.58;68.46
75401;BME280;63974;47.538;18.972;2023-02-19T00:10:03;100530.44;;;8.62;68.32
75401;BME280;63974;47.538;18.972;2023-02-19T00:13:07;100522.03;;;8.60;68.19
75401;BME280;63974;47.538;18.972;2023-02-19T00:16:16;100533.47;;;8.57;68.33
75401;BME280;63974;47.538;18.972;2023-02-19T00:19:20;100528.31;;;8.57;68.02
75401;BME280;63974;47.538;18.972;2023-02-19T00:22:23;100534.66;;;8.63;67.97
75401;BME280;63974;47.538;18.972;2023-02-19T00:25:25;100539.69;;;8.64;67.95
75401;BME280;63974;47.538;18.972;2023-02-19T00:28:28;100531.31;;;8.70;67.41
75401;BME280;63974;47.538;18.972;2023-02-19T00:31:33;100533.13;;;8.77;67.09
75401;BME280;63974;47.538;18.972;2023-02-19T00:34:37;100527.16;;;8.77;67.03
75401;BME280;63974;47.538;18.972;2023-02-19T00:37:39;100528.34;;;8.82;66.76
75401;BME280;63974;47.538;18.972;2023-02-19T00:40:42;100526.34;;;8.77;66.79
75401;BME280;63974;47.538;18.972;2023-02-19T00:46:48;100525.69;;;8.75;66.77
75401;BME280;63974;47.538;18.972;2023-02-19T00:49:51;100526.47;;;8.75;66.88
75401;BME280;63974;47.538;18.972;2023-02-19T00:52:54;100530.84;;;8.75;66.77
75401;BME280;63974;47.538;18.972;2023-02-19T00:55:56;100527.91;;;8.70;67.04
75401;BME280;63974;47.538;18.972;2023-02-19T00:58:59;100537.66;;;8.76;66.86
75401;BME280;63974;47.538;18.972;2023-02-19T01:02:02;100534.09;;;8.77;66.78
75401;BME280;63974;47.538;18.972;2023-02-19T01:05:05;100532.03;;;8.80;66.29
75401;BME280;63974;47.538;18.972;2023-02-19T01:08:09;100526.69;;;8.81;66.67
75401;BME280;63974;47.538;18.972;2023-02-19T01:11:12;100535.16;;;8.83;66.29
75401;BME280;63974;47.538;18.972;2023-02-19T01:14:15;100535.94;;;8.84;66.32
75401;BME280;63974;47.538;18.972;2023-02-19T01:17:19;100530.94;;;8.82;66.34
75401;BME280;63974;47.538;18.972;2023-02-19T01:20:21;100512.75;;;8.75;66.56
75401;BME280;63974;47.538;18.972;2023-02-19T01:23:25;100518.38;;;8.70;66.44
75401;BME280;63974;47.538;18.972;2023-02-19T01:26:30;100510.59;;;8.70;66.53
75401;BME280;63974;47.538;18.972;2023-02-19T01:29:33;100511.88;;;8.66;66.59
75401;BME280;63974;47.538;18.972;2023-02-19T01:32:36;100527.69;;;8.63;66.66
75401;BME280;63974;47.538;18.972;2023-02-19T01:35:39;100520.88;;;8.62;66.47
75401;BME280;63974;47.538;18.972;2023-02-19T01:38:43;100528.50;;;8.64;66.55
75401;BME280;63974;47.538;18.972;2023-02-19T01:41:46;100530.88;;;8.57;66.74
75401;BME280;63974;47.538;18.972;2023-02-19T01:45:22;100529.41;;;8.55;66.75
75401;BME280;63974;47.538;18.972;2023-02-19T01:48:36;100517.75;;;8.51;66.79
75401;BME280;63974;47.538;18.972;2023-02-19T01:52:04;100522.25;;;8.49;67.00
75401;BME280;63974;47.538;18.972;2023-02-19T01:55:11;100521.59;;;8.47;67.04
75401;BME280;63974;47.538;18.972;2023-02-19T01:58:15;100507.47;;;8.41;67.16
75401;BME280;63974;47.538;18.972;2023-02-19T02:01:18;100511.97;;;8.39;67.25
75401;BME280;63974;47.538;18.972;2023-02-19T02:04:22;100518.59;;;8.34;67.23
75401;BME280;63974;47.538;18.972;2023-02-19T02:07:26;100512.94;;;8.38;67.04
75401;BME280;63974;47.538;18.972;2023-02-19T02:10:49;100522.50;;;8.38;66.90
75401;BME280;63974;47.538;18.972;2023-02-19T02:13:52;100524.63;;;8.42;66.70
75401;BME280;63974;47.538;18.972;2023-02-19T02:24:05;100520.88;;;8.37;66.75
75401;BME280;63974;47.538;18.972;2023-02-19T02:27:44;100533.13;;;8.35;66.68
75401;BME280;63974;47.538;18.972;2023-02-19T02:31:12;100524.69;;;8.33;66.77
75401;BME280;63974;47.538;18.972;2023-02-19T02:34:24;100530.25;;;8.38;66.52
75401;BME280;63974;47.538;18.972;2023-02-19T02:37:33;100531.56;;;8.42;66.30
75401;BME280;63974;47.538;18.972;2023-02-19T02:40:41;100520.13;;;8.44;65.87
75401;BME280;63974;47.538;18.972;2023-02-19T02:43:45;100530.03;;;8.49;65.64
75401;BME280;63974;47.538;18.972;2023-02-19T02:46:50;100535.63;;;8.44;65.95
75401;BME280;63974;47.538;18.972;2023-02-19T02:49:55;100542.53;;;8.36;66.16
75401;BME280;63974;47.538;18.972;2023-02-19T02:53:20;100538.59;;;8.32;66.36
75401;BME280;63974;47.538;18.972;2023-02-19T02:56:43;100548.13;;;8.31;66.44
75401;BME280;63974;47.538;18.972;2023-02-19T02:59:49;100547.63;;;8.28;66.38
75401;BME280;63974;47.538;18.972;2023-02-19T03:02:55;100537.56;;;8.25;66.46
75401;BME280;63974;47.538;18.972;2023-02-19T03:06:02;100526.84;;;8.20;66.38
75401;BME280;63974;47.538;18.972;2023-02-19T03:09:10;100542.75;;;8.25;66.42
75401;BME280;63974;47.538;18.972;2023-02-19T03:12:16;100538.38;;;8.25;66.39
75401;BME280;63974;47.538;18.972;2023-02-19T03:15:47;100546.28;;;8.24;66.57
75401;BME280;63974;47.538;18.972;2023-02-19T03:19:14;100546.72;;;8.19;66.54
75401;BME280;63974;47.538;18.972;2023-02-19T03:22:28;100553.66;;;8.19;66.72
75401;BME280;63974;47.538;18.972;2023-02-19T03:25:36;100550.13;;;8.20;66.71
75401;BME280;63974;47.538;18.972;2023-02-19T03:29:09;100550.38;;;8.17;66.48
75401;BME280;63974;47.538;18.972;2023-02-19T03:32:35;100558.69;;;8.20;66.24
75401;BME280;63974;47.538;18.972;2023-02-19T03:35:48;100549.31;;;8.19;66.21
75401;BME280;63974;47.538;18.972;2023-02-19T03:39:12;100554.50;;;8.19;66.18
75401;BME280;63974;47.538;18.972;2023-02-19T03:42:23;100561.81;;;8.24;66.19
75401;BME280;63974;47.538;18.972;2023-02-19T03:48:50;100577.84;;;8.27;65.88
75401;BME280;63974;47.538;18.972;2023-02-19T03:58:43;100591.38;;;8.39;65.39
75401;BME280;63974;47.538;18.972;2023-02-19T04:01:53;100583.09;;;8.35;65.49
75401;BME280;63974;47.538;18.972;2023-02-19T04:05:08;100576.44;;;8.33;65.26
75401;BME280;63974;47.538;18.972;2023-02-19T04:08:17;100571.66;;;8.38;65.40
75401;BME280;63974;47.538;18.972;2023-02-19T04:11:28;100567.44;;;8.37;65.23
75401;BME280;63974;47.538;18.972;2023-02-19T04:17:54;100575.19;;;8.37;65.30
75401;BME280;63974;47.538;18.972;2023-02-19T04:20:59;100562.25;;;8.37;65.30
75401;BME280;63974;47.538;18.972;2023-02-19T04:24:12;100564.69;;;8.38;65.17
75401;BME280;63974;47.538;18.972;2023-02-19T04:27:16;100554.50;;;8.37;65.32
75401;BME280;63974;47.538;18.972;2023-02-19T04:30:20;100552.69;;;8.37;65.06
75401;BME280;63974;47.538;18.972;2023-02-19T04:33:23;100548.66;;;8.35;65.22
75401;BME280;63974;47.538;18.972;2023-02-19T04:36:25;100547.31;;;8.31;65.44
75401;BME280;63974;47.538;18.972;2023-02-19T04:39:28;100555.25;;;8.29;65.61
75401;BME280;63974;47.538;18.972;2023-02-19T04:42:31;100555.25;;;8.29;65.45
75401;BME280;63974;47.538;18.972;2023-02-19T04:45:36;100551.69;;;8.30;65.55
75401;BME280;63974;47.538;18.972;2023-02-19T04:48:39;100561.06;;;8.31;65.41
75401;BME280;63974;47.538;18.972;2023-02-19T04:51:42;100553.97;;;8.33;65.12
75401;BME280;63974;47.538;18.972;2023-02-19T04:54:45;100557.53;;;8.32;65.28
75401;BME280;63974;47.538;18.972;2023-02-19T04:57:47;100547.75;;;8.26;65.46
75401;BME280;63974;47.538;18.972;2023-02-19T05:00:51;100548.56;;;8.27;65.52
75401;BME280;63974;47.538;18.972;2023-02-19T05:03:54;100543.25;;;8.28;65.22
75401;BME280;63974;47.538;18.972;2023-02-19T05:06:57;100544.81;;;8.39;65.18
75401;BME280;63974;47.538;18.972;2023-02-19T05:10:00;100550.94;;;8.38;65.10
75401;BME280;63974;47.538;18.972;2023-02-19T05:13:02;100543.19;;;8.38;65.05
75401;BME280;63974;47.538;18.972;2023-02-19T05:16:09;100538.81;;;8.38;65.09
75401;BME280;63974;47.538;18.972;2023-02-19T05:19:15;100529.63;;;8.44;65.06
75401;BME280;63974;47.538;18.972;2023-02-19T05:22:18;100525.81;;;8.48;64.94
75401;BME280;63974;47.538;18.972;2023-02-19T05:25:21;100523.06;;;8.49;64.70
75401;BME280;63974;47.538;18.972;2023-02-19T05:28:24;100524.53;;;8.52;64.74
75401;BME280;63974;47.538;18.972;2023-02-19T05:31:30;100528.09;;;8.51;64.78
75401;BME280;63974;47.538;18.972;2023-02-19T05:34:35;100525.81;;;8.48;64.85
75401;BME280;63974;47.538;18.972;2023-02-19T05:37:38;100518.72;;;8.50;64.77
75401;BME280;63974;47.538;18.972;2023-02-19T05:40:41;100522.91;;;8.51;64.73
75401;BME280;63974;47.538;18.972;2023-02-19T05:43:46;100531.41;;;8.61;64.57
75401;BME280;63974;47.538;18.972;2023-02-19T05:46:49;100516.47;;;8.55;64.56
75401;BME280;63974;47.538;18.972;2023-02-19T05:49:52;100535.75;;;8.60;64.69
75401;BME280;63974;47.538;18.972;2023-02-19T05:52:55;100527.84;;;8.62;64.66
75401;BME280;63974;47.538;18.972;2023-02-19T05:55:57;100518.03;;;8.65;64.42
75401;BME280;63974;47.538;18.972;2023-02-19T05:59:06;100518.31;;;8.62;64.72
75401;BME280;63974;47.538;18.972;2023-02-19T06:02:10;100514.28;;;8.68;64.33
75401;BME280;63974;47.538;18.972;2023-02-19T06:05:13;100521.47;;;8.74;64.22
75401;BME280;63974;47.538;18.972;2023-02-19T06:08:16;100516.94;;;8.76;63.72
75401;BME280;63974;47.538;18.972;2023-02-19T06:11:19;100505.50;;;8.78;64.18
75401;BME280;63974;47.538;18.972;2023-02-19T06:14:22;100512.81;;;8.82;64.06
75401;BME280;63974;47.538;18.972;2023-02-19T06:17:24;100505.38;;;8.87;63.87
75401;BME280;63974;47.538;18.972;2023-02-19T06:20:28;100504.75;;;8.93;63.73
75401;BME280;63974;47.538;18.972;2023-02-19T06:23:32;100500.59;;;9.00;63.53
75401;BME280;63974;47.538;18.972;2023-02-19T06:26:35;100506.13;;;9.05;63.40
75401;BME280;63974;47.538;18.972;2023-02-19T06:29:38;100496.78;;;9.12;63.16
75401;BME280;63974;47.538;18.972;2023-02-19T06:32:41;100494.53;;;9.17;63.07
75401;BME280;63974;47.538;18.972;2023-02-19T06:35:44;100496.19;;;9.18;63.22
75401;BME280;63974;47.538;18.972;2023-02-19T06:38:47;100504.94;;;9.25;63.19
75401;BME280;63974;47.538;18.972;2023-02-19T06:41:53;100508.63;;;9.23;63.62
75401;BME280;63974;47.538;18.972;2023-02-19T06:44:56;100503.63;;;9.21;63.40
75401;BME280;63974;47.538;18.972;2023-02-19T06:47:59;100495.72;;;9.31;63.27
75401;BME280;63974;47.538;18.972;2023-02-19T06:51:02;100493.13;;;9.31;63.28
75401;BME280;63974;47.538;18.972;2023-02-19T06:54:05;100493.34;;;9.37;63.09
75401;BME280;63974;47.538;18.972;2023-02-19T06:57:08;100500.19;;;9.46;62.82
75401;BME280;63974;47.538;18.972;2023-02-19T07:00:11;100500.88;;;9.56;62.76
75401;BME280;63974;47.538;18.972;2023-02-19T07:03:14;100482.72;;;9.64;62.26
75401;BME280;63974;47.538;18.972;2023-02-19T07:06:20;100489.88;;;9.78;61.80
75401;BME280;63974;47.538;18.972;2023-02-19T07:09:23;100480.47;;;9.77;61.96
75401;BME280;63974;47.538;18.972;2023-02-19T07:12:26;100473.06;;;9.82;62.07
75401;BME280;63974;47.538;18.972;2023-02-19T07:15:29;100486.03;;;9.90;61.56
75401;BME280;63974;47.538;18.972;2023-02-19T07:18:33;100485.56;;;9.87;62.00
75401;BME280;63974;47.538;18.972;2023-02-19T07:21:35;100481.19;;;9.95;61.18
75401;BME280;63974;47.538;18.972;2023-02-19T07:24:39;100491.75;;;10.02;61.25
75401;BME280;63974;47.538;18.972;2023-02-19T07:27:42;100495.66;;;10.06;61.28
75401;BME280;63974;47.538;18.972;2023-02-19T07:30:45;100480.25;;;10.12;60.96
75401;BME280;63974;47.538;18.972;2023-02-19T07:33:50;100487.25;;;10.36;60.68
75401;BME280;63974;47.538;18.972;2023-02-19T07:36:53;100473.44;;;10.35;60.48
75401;BME280;63974;47.538;18.972;2023-02-19T07:39:56;100450.25;;;10.34;60.64
75401;BME280;63974;47.538;18.972;2023-02-19T07:42:59;100466.00;;;10.40;60.42
75401;BME280;63974;47.538;18.972;2023-02-19T07:46:06;100458.34;;;10.63;59.80
75401;BME280;63974;47.538;18.972;2023-02-19T07:49:09;100460.25;;;10.77;59.26
75401;BME280;63974;47.538;18.972;2023-02-19T07:52:12;100442.56;;;10.80;59.06
75401;BME280;63974;47.538;18.972;2023-02-19T07:55:15;100427.41;;;10.92;59.04
75401;BME280;63974;47.538;18.972;2023-02-19T07:58:18;100434.78;;;10.80;58.86
75401;BME280;63974;47.538;18.972;2023-02-19T08:01:22;100445.94;;;10.89;58.68
75401;BME280;63974;47.538;18.972;2023-02-19T08:04:46;100441.66;;;11.03;58.53
75401;BME280;63974;47.538;18.972;2023-02-19T08:07:49;100444.53;;;11.16;58.37
75401;BME280;63974;47.538;18.972;2023-02-19T08:10:52;100455.44;;;11.12;58.12
75401;BME280;63974;47.538;18.972;2023-02-19T08:14:14;100460.31;;;11.15;57.93
75401;BME280;63974;47.538;18.972;2023-02-19T08:17:17;100457.72;;;11.15;57.88
75401;BME280;63974;47.538;18.972;2023-02-19T08:20:20;100480.06;;;11.24;58.12
75401;BME280;63974;47.538;18.972;2023-02-19T08:23:22;100498.97;;;11.10;58.25
75401;BME280;63974;47.538;18.972;2023-02-19T08:26:25;100494.13;;;11.07;58.61
75401;BME280;63974;47.538;18.972;2023-02-19T08:29:28;100480.00;;;11.02;58.57
75401;BME280;63974;47.538;18.972;2023-02-19T08:32:31;100487.84;;;10.86;59.15
75401;BME280;63974;47.538;18.972;2023-02-19T08:35:34;100486.53;;;10.90;58.93
75401;BME280;63974;47.538;18.972;2023-02-19T08:38:38;100474.84;;;10.86;59.11
75401;BME280;63974;47.538;18.972;2023-02-19T08:41:41;100481.53;;;10.80;59.49
75401;BME280;63974;47.538;18.972;2023-02-19T08:44:43;100469.19;;;10.82;59.46
75401;BME280;63974;47.538;18.972;2023-02-19T08:47:46;100466.44;;;10.68;59.81
75401;BME280;63974;47.538;18.972;2023-02-19T08:50:57;100475.84;;;10.77;59.66
75401;BME280;63974;47.538;18.972;2023-02-19T08:54:01;100474.84;;;10.78;59.47
75401;BME280;63974;47.538;18.972;2023-02-19T08:57:05;100467.03;;;10.94;59.12
75401;BME280;63974;47.538;18.972;2023-02-19T09:00:08;100444.66;;;10.85;59.08
75401;BME280;63974;47.538;18.972;2023-02-19T09:03:12;100449.50;;;10.88;59.37
75401;BME280;63974;47.538;18.972;2023-02-19T09:06:17;100450.78;;;10.92;59.01
75401;BME280;63974;47.538;18.972;2023-02-19T09:09:20;100460.69;;;10.96;59.08
75401;BME280;63974;47.538;18.972;2023-02-19T09:12:23;100478.03;;;11.03;59.04
75401;BME280;63974;47.538;18.972;2023-02-19T09:15:26;100487.44;;;11.04;59.08
75401;BME280;63974;47.538;18.972;2023-02-19T09:18:31;100472.84;;;11.03;59.00
75401;BME280;63974;47.538;18.972;2023-02-19T09:21:34;100468.97;;;10.92;59.22
75401;BME280;63974;47.538;18.972;2023-02-19T09:24:37;100478.88;;;10.96;59.13
75401;BME280;63974;47.538;18.972;2023-02-19T09:27:40;100467.84;;;10.94;59.48
75401;BME280;63974;47.538;18.972;2023-02-19T09:30:43;100464.41;;;11.02;59.55
75401;BME280;63974;47.538;18.972;2023-02-19T09:33:47;100472.56;;;10.91;59.46
75401;BME280;63974;47.538;18.972;2023-02-19T09:36:50;100465.09;;;10.80;59.75
75401;BME280;63974;47.538;18.972;2023-02-19T09:39:53;100460.88;;;10.87;59.53
75401;BME280;63974;47.538;18.972;2023-02-19T09:42:56;100466.22;;;10.85;59.76
75401;BME280;63974;47.538;18.972;2023-02-19T09:46:17;100483.78;;;10.83;59.70
75401;BME280;63974;47.538;18.972;2023-02-19T09:49:37;100472.88;;;10.96;59.62
75401;BME280;63974;47.538;18.972;2023-02-19T09:52:45;100466.22;;;10.93;59.60
75401;BME280;63974;47.538;18.972;2023-02-19T09:55:49;100479.56;;;10.82;60.10
75401;BME280;63974;47.538;18.972;2023-02-19T09:58:55;100481.19;;;10.83;60.16
75401;BME280;63974;47.538;18.972;2023-02-19T10:02:10;100470.63;;;10.85;60.16
75401;BME280;63974;47.538;18.972;2023-02-19T10:05:15;100446.56;;;10.91;60.06
75401;BME280;63974;47.538;18.972;2023-02-19T10:08:19;100418.84;;;10.83;60.66
75401;BME280;63974;47.538;18.972;2023-02-19T10:11:24;100391.38;;;10.97;60.59
75401;BME280;63974;47.538;18.972;2023-02-19T10:14:44;100373.06;;;10.90;60.44
75401;BME280;63974;47.538;18.972;2023-02-19T10:17:49;100327.84;;;10.99;60.44
75401;BME280;63974;47.538;18.972;2023-02-19T10:20:52;100334.34;;;11.03;60.43
75401;BME280;63974;47.538;18.972;2023-02-19T10:23:59;100345.41;;;10.97;60.74
75401;BME280;63974;47.538;18.972;2023-02-19T10:27:07;100314.72;;;10.93;60.99
75401;BME280;63974;47.538;18.972;2023-02-19T10:30:23;100252.31;;;10.78;61.47
75401;BME280;63974;47.538;18.972;2023-02-19T10:33:27;100242.38;;;10.82;61.42
75401;BME280;63974;47.538;18.972;2023-02-19T10:36:39;100260.56;;;10.82;61.83
75401;BME280;63974;47.538;18.972;2023-02-19T10:39:45;100352.22;;;10.98;61.20
75401;BME280;63974;47.538;18.972;2023-02-19T10:42:52;100393.28;;;11.02;61.20
75401;BME280;63974;47.538;18.972;2023-02-19T10:45:57;100373.63;;;11.30;60.35
75401;BME280;63974;47.538;18.972;2023-02-19T10:49:04;100379.16;;;11.35;60.71
75401;BME280;63974;47.538;18.972;2023-02-19T10:52:23;100380.84;;;11.51;60.08
75401;BME280;63974;47.538;18.972;2023-02-19T10:55:33;100387.81;;;11.58;59.81
75401;BME280;63974;47.538;18.972;2023-02-19T10:58:39;100388.78;;;11.80;59.48
75401;BME280;63974;47.538;18.972;2023-02-19T11:05:04;100380.34;;;12.00;58.67
75401;BME280;63974;47.538;18.972;2023-02-19T11:08:20;100393.66;;;12.20;58.18
75401;BME280;63974;47.538;18.972;2023-02-19T11:11:43;100360.72;;;12.12;58.72
75401;BME280;63974;47.538;18.972;2023-02-19T11:14:46;100342.41;;;12.20;58.21
75401;BME280;63974;47.538;18.972;2023-02-19T11:21:05;100325.00;;;12.35;57.70
75401;BME280;63974;47.538;18.972;2023-02-19T11:24:29;100320.34;;;12.45;57.10
75401;BME280;63974;47.538;18.972;2023-02-19T11:27:32;100340.81;;;12.48;57.56
75401;BME280;63974;47.538;18.972;2023-02-19T11:30:40;100338.47;;;12.39;57.62
75401;BME280;63974;47.538;18.972;2023-02-19T11:33:50;100335.84;;;12.24;57.77
75401;BME280;63974;47.538;18.972;2023-02-19T11:40:15;100329.38;;;12.06;58.25
75401;BME280;63974;47.538;18.972;2023-02-19T11:53:33;100320.22;;;12.68;56.28
75401;BME280;63974;47.538;18.972;2023-02-19T11:56:39;100336.84;;;12.81;56.60
75401;BME280;63974;47.538;18.972;2023-02-19T12:03:42;100301.47;;;12.72;56.44
75401;BME280;63974;47.538;18.972;2023-02-19T12:27:29;100282.31;;;13.78;53.51
75401;BME280;63974;47.538;18.972;2023-02-19T12:38:08;100289.28;;;13.98;52.23
75401;BME280;63974;47.538;18.972;2023-02-19T12:44:44;100299.25;;;13.88;52.33
75401;BME280;63974;47.538;18.972;2023-02-19T12:48:02;100299.66;;;13.64;53.09
75401;BME280;63974;47.538;18.972;2023-02-19T12:51:24;100292.81;;;13.63;52.68
75401;BME280;63974;47.538;18.972;2023-02-19T12:54:35;100298.81;;;13.57;52.84
75401;BME280;63974;47.538;18.972;2023-02-19T12:57:40;100294.78;;;13.82;52.68
75401;BME280;63974;47.538;18.972;2023-02-19T13:00:48;100287.94;;;14.09;52.09
75401;BME280;63974;47.538;18.972;2023-02-19T13:04:16;100287.88;;;14.23;51.25
75401;BME280;63974;47.538;18.972;2023-02-19T13:13:59;100318.03;;;14.05;51.90
75401;BME280;63974;47.538;18.972;2023-02-19T13:17:39;100310.78;;;14.00;52.13
75401;BME280;63974;47.538;18.972;2023-02-19T13:20:41;100306.03;;;14.10;51.98
75401;BME280;63974;47.538;18.972;2023-02-19T13:23:45;100295.25;;;13.92;52.40
75401;BME280;63974;47.538;18.972;2023-02-19T13:34:10;100273.81;;;14.24;51.95
75401;BME280;63974;47.538;18.972;2023-02-19T13:37:09;100281.59;;;14.18;51.84
75401;BME280;63974;47.538;18.972;2023-02-19T13:40:31;100276.03;;;14.27;51.45
75401;BME280;63974;47.538;18.972;2023-02-19T13:43:36;100266.53;;;14.20;51.90
75401;BME280;63974;47.538;18.972;2023-02-19T13:46:42;100274.78;;;14.17;51.48
75401;BME280;63974;47.538;18.972;2023-02-19T13:49:48;100277.59;;;14.22;51.82
75401;BME280;63974;47.538;18.972;2023-02-19T13:52:52;100285.25;;;14.23;51.76
75401;BME280;63974;47.538;18.972;2023-02-19T13:55:55;100274.06;;;14.29;51.05
75401;BME280;63974;47.538;18.972;2023-02-19T13:59:51;100281.06;;;14.29;49.88
75401;BME280;63974;47.538;18.972;2023-02-19T14:02:46;100275.00;;;14.22;50.20
75401;BME280;63974;47.538;18.972;2023-02-19T14:06:01;100273.19;;;14.22;50.29
75401;BME280;63974;47.538;18.972;2023-02-19T14:12:39;100265.28;;;14.16;50.09
75401;BME280;63974;47.538;18.972;2023-02-19T14:15:48;100268.72;;;14.16;49.92
75401;BME280;63974;47.538;18.972;2023-02-19T14:18:51;100249.16;;;14.06;49.76
75401;BME280;63974;47.538;18.972;2023-02-19T14:21:54;100260.44;;;14.06;49.96
75401;BME280;63974;47.538;18.972;2023-02-19T14:24:58;100260.22;;;14.08;50.07
75401;BME280;63974;47.538;18.972;2023-02-19T14:31:22;100266.88;;;14.10;50.34
75401;BME280;63974;47.538;18.972;2023-02-19T14:34:27;100265.97;;;13.97;50.65
75401;BME280;63974;47.538;18.972;2023-02-19T14:37:31;100273.72;;;13.84;50.41
75401;BME280;63974;47.538;18.972;2023-02-19T14:40:38;100271.78;;;13.65;51.37
75401;BME280;63974;47.538;18.972;2023-02-19T14:43:44;100276.88;;;13.52;52.84
75401;BME280;63974;47.538;18.972;2023-02-19T14:49:58;100289.22;;;13.43;53.71
75401;BME280;63974;47.538;18.972;2023-02-19T14:53:04;100289.66;;;13.47;53.86
75401;BME280;63974;47.538;18.972;2023-02-19T14:56:22;100284.81;;;13.44;53.91
75401;BME280;63974;47.538;18.972;2023-02-19T14:59:29;100296.69;;;13.46;54.19
75401;BME280;63974;47.538;18.972;2023-02-19T15:02:41;100298.84;;;13.43;54.21
75401;BME280;63974;47.538;18.972;2023-02-19T15:05:44;100303.47;;;13.41;54.17
75401;BME280;63974;47.538;18.972;2023-02-19T15:08:50;100304.47;;;13.40;54.42
75401;BME280;63974;47.538;18.972;2023-02-19T15:11:55;100298.97;;;13.35;54.54
75401;BME280;63974;47.538;18.972;2023-02-19T15:15:02;100308.16;;;13.31;54.33
75401;BME280;63974;47.538;18.972;2023-02-19T15:18:16;100308.97;;;13.32;53.83
75401;BME280;63974;47.538;18.972;2023-02-19T15:21:22;100309.88;;;13.24;54.23
75401;BME280;63974;47.538;18.972;2023-02-19T15:24:27;100311.09;;;13.22;54.12
75401;BME280;63974;47.538;18.972;2023-02-19T15:27:31;100315.59;;;13.13;54.65
75401;BME280;63974;47.538;18.972;2023-02-19T15:30:38;100321.72;;;13.06;54.63
75401;BME280;63974;47.538;18.972;2023-02-19T15:33:49;100334.59;;;13.07;54.56
75401;BME280;63974;47.538;18.972;2023-02-19T15:37:04;100351.16;;;13.00;54.92
75401;BME280;63974;47.538;18.972;2023-02-19T15:40:13;100357.56;;;12.89;55.46
75401;BME280;63974;47.538;18.972;2023-02-19T15:43:27;100359.69;;;12.79;55.59
75401;BME280;63974;47.538;18.972;2023-02-19T15:46:34;100373.69;;;12.78;55.72
75401;BME280;63974;47.538;18.972;2023-02-19T15:49:50;100376.75;;;12.67;55.96
75401;BME280;63974;47.538;18.972;2023-02-19T15:53:06;100379.59;;;12.58;56.33
75401;BME280;63974;47.538;18.972;2023-02-19T15:56:19;100381.22;;;12.44;56.70
75401;BME280;63974;47.538;18.972;2023-02-19T15:59:37;100385.06;;;12.34;57.02
75401;BME280;63974;47.538;18.972;2023-02-19T16:02:42;100376.25;;;12.20;57.36
75401;BME280;63974;47.538;18.972;2023-02-19T16:09:04;100396.81;;;11.93;58.48
75401;BME280;63974;47.538;18.972;2023-02-19T16:12:22;100397.47;;;11.72;59.15
75401;BME280;63974;47.538;18.972;2023-02-19T16:15:28;100392.78;;;11.68;59.19
75401;BME280;63974;47.538;18.972;2023-02-19T16:18:32;100395.72;;;11.65;59.50
75401;BME280;63974;47.538;18.972;2023-02-19T16:21:35;100391.75;;;11.46;59.64
75401;BME280;63974;47.538;18.972;2023-02-19T16:24:43;100393.75;;;11.36;60.32
75401;BME280;63974;47.538;18.972;2023-02-19T16:27:47;100404.03;;;11.30;60.51
75401;BME280;63974;47.538;18.972;2023-02-19T16:31:01;100401.66;;;11.20;60.88
75401;BME280;63974;47.538;18.972;2023-02-19T16:34:16;100408.66;;;11.12;61.00
75401;BME280;63974;47.538;18.972;2023-02-19T16:37:38;100417.66;;;11.02;61.22
75401;BME280;63974;47.538;18.972;2023-02-19T16:43:48;100423.06;;;10.84;61.57
75401;BME280;63974;47.538;18.972;2023-02-19T16:46:53;100439.97;;;10.80;61.57
75401;BME280;63974;47.538;18.972;2023-02-19T16:50:02;100443.06;;;10.76;61.77
75401;BME280;63974;47.538;18.972;2023-02-19T16:53:20;100441.78;;;10.64;62.19
75401;BME280;63974;47.538;18.972;2023-02-19T16:56:23;100448.13;;;10.53;62.41
75401;BME280;63974;47.538;18.972;2023-02-19T16:59:27;100455.09;;;10.45;62.66
75401;BME280;63974;47.538;18.972;2023-02-19T17:02:30;100462.56;;;10.32;63.06
75401;BME280;63974;47.538;18.972;2023-02-19T17:05:35;100470.69;;;10.21;63.52
75401;BME280;63974;47.538;18.972;2023-02-19T17:08:41;100478.00;;;10.17;63.81
75401;BME280;63974;47.538;18.972;2023-02-19T17:11:46;100480.72;;;10.08;64.16
75401;BME280;63974;47.538;18.972;2023-02-19T17:14:49;100489.97;;;10.10;64.04
75401;BME280;63974;47.538;18.972;2023-02-19T17:17:52;100495.81;;;10.04;64.33
75401;BME280;63974;47.538;18.972;2023-02-19T17:21:39;100498.56;;;10.03;64.46
75401;BME280;63974;47.538;18.972;2023-02-19T17:24:22;100497.59;;;10.04;64.34
75401;BME280;63974;47.538;18.972;2023-02-19T17:27:26;100508.63;;;10.06;64.35
75401;BME280;63974;47.538;18.972;2023-02-19T17:30:30;100509.94;;;10.10;64.36
75401;BME280;63974;47.538;18.972;2023-02-19T17:33:34;100516.25;;;10.15;64.06
75401;BME280;63974;47.538;18.972;2023-02-19T17:36:38;100525.00;;;10.14;64.25
75401;BME280;63974;47.538;18.972;2023-02-19T17:39:42;100522.41;;;10.06;64.48
75401;BME280;63974;47.538;18.972;2023-02-19T17:42:46;100526.28;;;10.02;64.78
75401;BME280;63974;47.538;18.972;2023-02-19T17:45:50;100526.06;;;9.96;65.10
75401;BME280;63974;47.538;18.972;2023-02-19T17:48:53;100528.50;;;9.89;65.16
75401;BME280;63974;47.538;18.972;2023-02-19T17:51:57;100531.09;;;9.89;65.37
75401;BME280;63974;47.538;18.972;2023-02-19T17:55:01;100552.31;;;9.85;65.56
75401;BME280;63974;47.538;18.972;2023-02-19T17:58:05;100551.78;;;9.73;65.92
75401;BME280;63974;47.538;18.972;2023-02-19T18:01:08;100559.53;;;9.65;66.13